createdAt,value
2022-12-08T00:01:45.162Z,2.18
2022-12-08T00:04:16.145Z,2.23
2022-12-08T00:07:04.026Z,2.21
2022-12-08T00:09:41.824Z,2.09
2022-12-08T00:12:17.384Z,1.96
2022-12-08T00:14:47.994Z,1.92
2022-12-08T00:17:20.566Z,1.89
2022-12-08T00:19:50.758Z,1.84
2022-12-08T00:22:22.316Z,1.79
2022-12-08T00:24:54.225Z,1.73
2022-12-08T00:27:23.571Z,1.69
2022-12-08T00:29:52.690Z,1.64
2022-12-08T00:32:22.467Z,1.56
2022-12-08T00:34:51.588Z,1.57
2022-12-08T00:37:20.599Z,1.58
2022-12-08T00:39:49.462Z,1.61
2022-12-08T00:42:18.457Z,1.61
2022-12-08T00:44:48.249Z,1.56
2022-12-08T00:47:22.112Z,1.48
2022-12-08T00:49:53.971Z,1.40
2022-12-08T00:52:23.160Z,1.27
2022-12-08T00:54:52.320Z,1.16
2022-12-08T00:57:21.703Z,1.15
2022-12-08T00:59:50.968Z,1.17
2022-12-08T01:02:20.100Z,1.17
2022-12-08T01:04:49.088Z,1.16
2022-12-08T01:07:18.228Z,1.14
2022-12-08T01:09:50.189Z,1.13
2022-12-08T01:12:19.235Z,1.12
2022-12-08T01:14:48.624Z,1.09
2022-12-08T01:17:17.908Z,1.11
2022-12-08T01:19:47.159Z,1.13
2022-12-08T01:22:16.232Z,1.14
2022-12-08T01:24:45.560Z,1.15
2022-12-08T01:27:17.213Z,1.19
2022-12-08T01:29:46.336Z,1.19
2022-12-08T01:32:15.692Z,1.19
2022-12-08T01:34:44.496Z,1.15
2022-12-08T01:37:13.688Z,1.13
2022-12-08T01:39:42.711Z,1.14
2022-12-08T01:42:23.081Z,1.11
2022-12-08T01:45:00.263Z,1.07
2022-12-08T01:47:46.476Z,1.07
2022-12-08T01:50:16.732Z,1.09
2022-12-08T01:52:52.240Z,1.09
2022-12-08T01:55:25.752Z,1.10
2022-12-08T01:58:00.263Z,1.10
2022-12-08T02:00:29.242Z,1.09
2022-12-08T02:03:22.234Z,1.08
2022-12-08T02:05:52.286Z,1.09
2022-12-08T02:08:22.168Z,1.10
2022-12-08T02:10:55.156Z,1.12
2022-12-08T02:13:25.495Z,1.13
2022-12-08T02:16:09.501Z,1.11
2022-12-08T02:19:33.039Z,1.07
2022-12-08T02:22:29.332Z,1.01
2022-12-08T02:25:11.603Z,0.96
2022-12-08T02:27:56.168Z,0.93
2022-12-08T02:31:02.403Z,0.85
2022-12-08T02:34:05.212Z,0.78
2022-12-08T02:36:46.739Z,0.74
2022-12-08T02:39:27.305Z,0.74
2022-12-08T02:42:33.494Z,0.73
2022-12-08T02:45:22.380Z,0.70
2022-12-08T02:47:53.627Z,0.67
2022-12-08T02:50:23.166Z,0.64
2022-12-08T02:52:52.026Z,0.62
2022-12-08T02:55:29.203Z,0.58
2022-12-08T02:59:05.784Z,0.52
2022-12-08T03:02:08.271Z,0.37
2022-12-08T03:04:59.469Z,0.30
2022-12-08T03:08:03.548Z,0.24
2022-12-08T03:11:15.133Z,0.18
2022-12-08T03:13:53.734Z,0.09
2022-12-08T03:16:30.481Z,0.04
2022-12-08T03:19:17.915Z,0.03
2022-12-08T03:22:03.786Z,0.04
2022-12-08T03:24:40.600Z,0.05
2022-12-08T03:27:27.233Z,0.06
2022-12-08T03:29:59.545Z,0.03
2022-12-08T03:32:49.702Z,-0.07
2022-12-08T03:35:25.178Z,-0.03
2022-12-08T03:38:04.418Z,0.00
2022-12-08T03:40:33.577Z,-0.01
2022-12-08T03:43:02.734Z,-0.04
2022-12-08T03:45:32.058Z,-0.04
2022-12-08T03:48:01.081Z,-0.02
2022-12-08T03:50:30.104Z,0.00
2022-12-08T03:52:59.296Z,-0.01
2022-12-08T03:55:28.663Z,-0.00
2022-12-08T03:57:57.450Z,-0.01
2022-12-08T04:00:26.877Z,0.02
2022-12-08T04:03:00.783Z,0.07
2022-12-08T04:05:32.737Z,0.10
2022-12-08T04:08:01.986Z,0.09
2022-12-08T04:10:31.234Z,0.10
2022-12-08T04:13:04.110Z,0.16
2022-12-08T04:15:33.091Z,0.22
2022-12-08T04:18:11.865Z,0.24
2022-12-08T04:20:45.883Z,0.25
2022-12-08T04:23:15.219Z,0.25
2022-12-08T04:25:45.049Z,0.26
2022-12-08T04:28:14.212Z,0.23
2022-12-08T04:30:46.748Z,0.20
2022-12-08T04:33:16.411Z,0.16
2022-12-08T04:35:45.851Z,0.10
2022-12-08T04:38:15.233Z,0.06
2022-12-08T04:54:47.281Z,0.54
2022-12-08T04:57:15.216Z,0.79
2022-12-08T04:59:43.371Z,0.80
2022-12-08T05:02:13.609Z,0.76
2022-12-08T05:04:42.277Z,0.76
2022-12-08T05:07:10.190Z,0.71
2022-12-08T05:09:38.089Z,0.70
2022-12-08T05:12:07.266Z,0.69
2022-12-08T05:14:34.937Z,0.67
2022-12-08T05:17:07.829Z,0.64
2022-12-08T05:19:38.918Z,0.64
2022-12-08T05:22:10.610Z,0.64
2022-12-08T05:24:47.378Z,0.63
2022-12-08T05:27:25.526Z,0.62
2022-12-08T05:30:06.441Z,0.60
2022-12-08T05:32:37.566Z,0.59
2022-12-08T05:35:06.419Z,0.56
2022-12-08T05:37:38.781Z,0.56
2022-12-08T05:40:17.195Z,0.52
2022-12-08T05:42:52.606Z,0.49
2022-12-08T05:45:23.004Z,0.40
2022-12-08T05:51:00.967Z,0.28
2022-12-08T05:53:34.503Z,0.24
2022-12-08T05:56:07.129Z,0.17
2022-12-08T05:58:37.940Z,0.11
2022-12-08T06:01:07.442Z,0.08
2022-12-08T06:03:39.432Z,0.03
2022-12-08T06:06:18.260Z,0.04
2022-12-08T06:09:07.292Z,0.06
2022-12-08T06:11:34.937Z,0.06
2022-12-08T06:14:07.276Z,0.10
2022-12-08T06:16:57.043Z,0.18
2022-12-08T06:19:27.392Z,0.25
2022-12-08T06:21:56.853Z,0.28
2022-12-08T06:24:36.552Z,0.32
2022-12-08T06:27:13.091Z,0.34
2022-12-08T06:29:42.970Z,0.39
2022-12-08T06:32:16.194Z,0.45
2022-12-08T06:34:57.996Z,0.49
2022-12-08T06:37:41.841Z,0.47
2022-12-08T06:40:12.907Z,0.40
2022-12-08T06:43:06.105Z,0.39
2022-12-08T06:45:42.939Z,0.40
2022-12-08T06:48:13.891Z,0.43
2022-12-08T06:50:46.003Z,0.48
2022-12-08T06:53:21.324Z,0.52
2022-12-08T06:56:00.521Z,0.53
2022-12-08T06:58:37.707Z,0.60
2022-12-08T07:01:12.523Z,0.70
2022-12-08T07:03:48.972Z,0.79
2022-12-08T07:06:41.992Z,0.89
2022-12-08T07:09:24.710Z,0.97
2022-12-08T07:11:57.194Z,1.05
2022-12-08T07:14:25.697Z,1.12
2022-12-08T07:17:08.119Z,1.23
2022-12-08T07:19:51.291Z,1.33
2022-12-08T07:22:24.145Z,1.38
2022-12-08T07:24:55.531Z,1.40
2022-12-08T07:27:40.028Z,1.41
2022-12-08T07:30:15.148Z,1.42
2022-12-08T07:32:49.631Z,1.44
2022-12-08T07:35:22.841Z,1.53
2022-12-08T07:37:57.562Z,1.61
2022-12-08T07:40:26.616Z,1.66
2022-12-08T07:46:07.327Z,1.64
2022-12-08T07:48:38.075Z,1.66
2022-12-08T07:51:13.897Z,1.72
2022-12-08T07:53:51.639Z,1.82
2022-12-08T07:56:29.405Z,1.88
2022-12-08T07:59:10.580Z,1.94
2022-12-08T08:02:13.110Z,2.01
2022-12-08T08:04:56.287Z,2.12
2022-12-08T08:07:50.513Z,2.23
2022-12-08T08:10:58.118Z,2.32
2022-12-08T08:13:31.880Z,2.37
2022-12-08T08:16:39.377Z,2.35
2022-12-08T08:19:15.398Z,2.32
2022-12-08T08:21:50.737Z,2.29
2022-12-08T08:24:27.284Z,2.31
2022-12-08T08:27:07.170Z,2.34
2022-12-08T08:29:52.917Z,2.41
2022-12-08T08:32:37.095Z,2.51
2022-12-08T08:35:16.910Z,2.55
2022-12-08T08:37:57.243Z,2.56
2022-12-08T08:40:34.318Z,2.56
2022-12-08T08:43:10.332Z,2.64
2022-12-08T08:45:43.341Z,2.74
2022-12-08T08:48:12.676Z,2.72
2022-12-08T08:50:47.702Z,2.76
2022-12-08T08:53:20.248Z,2.74
2022-12-08T08:55:56.883Z,2.68
2022-12-08T08:58:29.507Z,2.63
2022-12-08T09:01:02.972Z,2.60
2022-12-08T09:03:45.607Z,2.57
2022-12-08T09:06:21.213Z,2.61
2022-12-08T09:08:55.991Z,2.61
2022-12-08T09:11:31.013Z,2.66
2022-12-08T10:25:27.208Z,3.42
2022-12-08T10:28:03.664Z,3.50
2022-12-08T10:30:32.880Z,3.50
2022-12-08T10:33:15.077Z,3.52
2022-12-08T10:35:53.482Z,3.60
2022-12-08T10:38:31.934Z,3.70
2022-12-08T10:41:23.233Z,3.81
2022-12-08T10:44:09.810Z,3.80
2022-12-08T10:46:41.055Z,3.78
2022-12-08T10:49:14.791Z,3.81
2022-12-08T10:52:12.644Z,3.85
2022-12-08T10:54:56.759Z,3.87
2022-12-08T10:57:29.743Z,3.89
2022-12-08T11:00:31.700Z,3.91
2022-12-08T11:03:38.675Z,3.91
2022-12-08T11:06:41.975Z,3.86
2022-12-08T11:09:31.326Z,3.73
2022-12-08T11:12:21.025Z,3.59
2022-12-08T11:15:32.555Z,3.52
2022-12-08T11:18:24.158Z,3.42
2022-12-08T11:21:08.577Z,3.39
2022-12-08T11:24:12.510Z,3.39
2022-12-08T11:27:03.172Z,3.40
2022-12-08T11:29:40.506Z,3.46
2022-12-08T11:32:27.985Z,3.49
2022-12-08T11:35:43.642Z,3.57
2022-12-08T11:38:29.293Z,3.63
2022-12-08T11:45:12.210Z,3.78
2022-12-08T11:48:54.363Z,3.90
2022-12-08T11:52:21.099Z,4.01
2022-12-08T11:55:35.264Z,4.10
2022-12-08T11:58:26.606Z,4.10
2022-12-08T12:01:00.603Z,4.05
2022-12-08T12:03:49.043Z,4.00
2022-12-08T12:06:54.760Z,3.94
2022-12-08T12:10:27.843Z,3.94
2022-12-08T12:13:35.906Z,3.92
2022-12-08T12:16:25.884Z,3.97
2022-12-08T12:19:26.361Z,4.01
2022-12-08T12:21:57.110Z,4.01
2022-12-08T12:24:35.719Z,4.02
2022-12-08T12:27:16.337Z,4.01
2022-12-08T12:30:01.934Z,3.96
2022-12-08T12:32:49.265Z,3.93
2022-12-08T12:35:52.734Z,3.89
2022-12-08T12:38:56.504Z,3.81
2022-12-08T12:42:06.850Z,3.71
2022-12-08T12:49:52.622Z,3.57
2022-12-08T12:53:13.737Z,3.51
2022-12-08T12:56:25.408Z,3.51
2022-12-08T13:00:13.330Z,3.56
2022-12-08T13:03:22.842Z,3.57
2022-12-08T13:06:32.596Z,3.60
2022-12-08T13:09:55.756Z,3.66
2022-12-08T13:12:40.102Z,3.73
2022-12-08T13:15:20.978Z,3.77
2022-12-08T13:21:13.894Z,3.74
2022-12-08T13:24:29.029Z,3.74
2022-12-08T13:27:10.918Z,3.79
2022-12-08T13:30:44.552Z,3.79
2022-12-08T13:33:55.080Z,3.65
2022-12-08T13:37:22.793Z,3.55
2022-12-08T13:40:09.881Z,3.47
2022-12-08T13:43:13.538Z,3.42
2022-12-08T13:46:57.917Z,3.34
2022-12-08T13:50:54.739Z,3.27
2022-12-08T13:57:59.966Z,3.09
2022-12-08T14:00:33.034Z,3.06
2022-12-08T14:03:02.285Z,3.06
2022-12-08T14:06:11.745Z,3.03
2022-12-08T14:09:03.751Z,3.02
2022-12-08T14:11:41.667Z,3.01
2022-12-08T14:15:01.342Z,3.05
2022-12-08T14:17:22.971Z,3.07
2022-12-08T14:20:12.996Z,3.02
2022-12-08T14:22:55.456Z,2.83
2022-12-08T14:25:27.921Z,2.69
2022-12-08T14:28:06.391Z,2.69
2022-12-08T14:30:41.378Z,2.73
2022-12-08T14:33:18.972Z,2.76
2022-12-08T14:35:56.580Z,2.74
2022-12-08T14:38:27.255Z,2.66
2022-12-08T14:41:00.849Z,2.62
2022-12-08T14:43:33.858Z,2.61
2022-12-08T15:03:42.762Z,3.18
2022-12-08T15:06:16.759Z,3.40
2022-12-08T15:09:00.103Z,3.30
2022-12-08T15:11:43.162Z,3.20
2022-12-08T15:14:41.439Z,3.10
2022-12-08T15:17:39.705Z,2.95
2022-12-08T15:20:44.703Z,2.87
2022-12-08T15:23:40.746Z,2.84
2022-12-08T15:26:23.122Z,2.80
2022-12-08T15:28:55.987Z,2.82
2022-12-08T15:31:42.783Z,2.83
2022-12-08T15:34:33.846Z,2.81
2022-12-08T15:37:21.498Z,2.75
2022-12-08T15:40:09.612Z,2.63
2022-12-08T15:42:44.219Z,2.59
2022-12-08T15:45:57.456Z,2.56
2022-12-08T15:48:36.563Z,2.60
2022-12-08T15:51:11.850Z,2.64
2022-12-08T15:54:01.604Z,2.69
2022-12-08T15:58:04.601Z,2.75
2022-12-08T16:00:53.320Z,2.79
2022-12-08T16:04:19.957Z,2.73
2022-12-08T16:23:41.846Z,2.72
2022-12-08T16:27:58.954Z,2.73
2022-12-08T16:30:03.548Z,2.75
2022-12-08T16:32:39.083Z,2.75
2022-12-08T16:35:14.545Z,2.70
2022-12-08T16:37:49.700Z,2.74
2022-12-08T16:41:30.074Z,2.75
2022-12-08T16:57:56.159Z,3.34
2022-12-08T17:00:40.945Z,3.42
2022-12-08T17:03:15.655Z,3.43
2022-12-08T17:05:46.206Z,3.40
2022-12-08T17:08:16.387Z,3.30
2022-12-08T17:11:06.295Z,3.27
2022-12-08T17:13:41.221Z,3.23
2022-12-08T17:16:15.676Z,3.27
2022-12-08T17:18:45.169Z,3.31
2022-12-08T17:21:18.613Z,3.37
2022-12-08T17:23:49.403Z,3.42
2022-12-08T17:26:21.432Z,3.42
2022-12-08T17:29:00.509Z,3.41
2022-12-08T17:31:33.283Z,3.40
2022-12-08T17:34:12.563Z,3.42
2022-12-08T17:36:45.964Z,3.46
2022-12-08T17:39:19.220Z,3.47
2022-12-08T17:41:51.744Z,3.51
2022-12-08T17:44:22.075Z,3.55
2022-12-08T17:46:53.493Z,3.51
2022-12-08T17:49:30.212Z,3.48
2022-12-08T17:52:03.384Z,3.47
2022-12-08T17:54:32.759Z,3.47
2022-12-08T17:57:05.824Z,3.42
2022-12-08T17:59:35.361Z,3.35
2022-12-08T18:02:04.759Z,3.32
2022-12-08T18:04:33.769Z,3.32
2022-12-08T18:07:04.409Z,3.35
2022-12-08T18:09:35.204Z,3.28
2022-12-08T18:12:08.386Z,3.19
2022-12-08T18:14:38.241Z,3.11
2022-12-08T18:17:07.391Z,3.06
2022-12-08T18:19:36.389Z,3.04
2022-12-08T18:22:05.997Z,3.05
2022-12-08T18:24:35.129Z,3.05
2022-12-08T18:27:05.259Z,3.08
2022-12-08T18:29:34.390Z,3.12
2022-12-08T18:32:03.846Z,3.10
2022-12-08T18:34:33.452Z,3.05
2022-12-08T18:37:09.417Z,2.98
2022-12-08T18:39:42.861Z,2.91
2022-12-08T18:42:25.037Z,2.84
2022-12-08T18:45:04.768Z,2.79
2022-12-08T18:47:44.020Z,2.73
2022-12-08T18:50:16.858Z,2.68
2022-12-08T18:52:47.286Z,2.65
2022-12-08T18:55:16.554Z,2.58
2022-12-08T18:57:51.374Z,2.50
2022-12-08T19:00:25.787Z,2.44
2022-12-08T19:02:55.788Z,2.42
2022-12-08T19:05:25.316Z,2.42
2022-12-08T19:07:54.792Z,2.43
2022-12-08T19:10:29.504Z,2.42
2022-12-08T19:12:59.628Z,2.41
2022-12-08T19:15:29.503Z,2.37
2022-12-08T19:17:59.401Z,2.34
2022-12-08T19:20:29.222Z,2.32
2022-12-08T19:23:03.436Z,2.32
2022-12-08T19:25:32.287Z,2.37
2022-12-08T19:28:03.030Z,2.42
2022-12-08T19:30:36.499Z,2.46
2022-12-08T19:33:06.509Z,2.43
2022-12-08T19:35:37.196Z,2.42
2022-12-08T19:38:08.123Z,2.44
2022-12-08T19:40:56.307Z,2.47
2022-12-08T19:43:45.122Z,2.50
2022-12-08T19:46:17.746Z,2.52
2022-12-08T19:48:46.639Z,2.53
2022-12-08T19:51:16.743Z,2.50
2022-12-08T19:53:47.987Z,2.43
2022-12-08T19:56:17.238Z,2.35
2022-12-08T19:58:46.855Z,2.34
2022-12-08T20:01:17.089Z,2.37
2022-12-08T20:03:47.674Z,2.39
2022-12-08T20:06:18.818Z,2.42
2022-12-08T20:08:50.777Z,2.46
2022-12-08T20:11:22.373Z,2.51
2022-12-08T20:13:51.958Z,2.54
2022-12-08T20:16:24.556Z,2.54
2022-12-08T20:18:53.826Z,2.55
2022-12-08T20:21:22.897Z,2.59
2022-12-08T20:23:52.239Z,2.63
2022-12-08T20:26:23.397Z,2.66
2022-12-08T20:28:53.279Z,2.70
2022-12-08T20:31:27.512Z,2.73
2022-12-08T20:33:57.579Z,2.76
2022-12-08T20:36:27.743Z,2.81
2022-12-08T20:38:57.861Z,2.83
2022-12-08T20:41:31.840Z,2.87
2022-12-08T20:44:06.010Z,2.89
2022-12-08T20:46:35.228Z,2.91
2022-12-08T20:49:05.145Z,2.92
2022-12-08T20:51:35.219Z,2.93
2022-12-08T20:54:05.818Z,2.94
2022-12-08T20:56:34.740Z,2.93
2022-12-08T20:59:03.659Z,2.94
2022-12-08T21:01:32.948Z,2.95
2022-12-08T21:04:02.380Z,2.98
2022-12-08T21:06:31.883Z,3.00
2022-12-08T21:09:01.241Z,2.99
2022-12-08T21:11:31.166Z,2.99
2022-12-08T21:14:00.415Z,3.02
2022-12-08T21:16:30.626Z,3.03
2022-12-08T21:19:00.017Z,3.02
2022-12-08T21:21:28.841Z,3.03
2022-12-08T21:23:57.957Z,3.03
2022-12-08T21:26:27.059Z,3.02
2022-12-08T21:28:59.385Z,3.04
2022-12-08T21:31:32.148Z,3.05
2022-12-08T21:34:02.868Z,3.05
2022-12-08T21:36:31.992Z,3.03
2022-12-08T21:39:03.004Z,2.98
2022-12-08T21:41:50.744Z,2.97
2022-12-08T21:44:20.252Z,2.97
2022-12-08T21:46:49.587Z,2.99
2022-12-08T21:49:18.628Z,3.02
2022-12-08T21:51:47.810Z,3.04
2022-12-08T21:54:19.184Z,3.06
2022-12-08T21:56:49.844Z,3.06
2022-12-08T21:59:19.926Z,3.08
2022-12-08T22:01:48.997Z,3.09
2022-12-08T22:04:19.481Z,3.10
2022-12-08T22:06:49.091Z,3.11
2022-12-08T22:09:18.196Z,3.13
2022-12-08T22:11:47.561Z,3.16
2022-12-08T22:14:21.210Z,3.18
2022-12-08T22:16:58.311Z,3.16
2022-12-08T22:19:27.815Z,3.15
2022-12-08T22:25:05.510Z,3.18
2022-12-08T22:27:41.553Z,3.18
2022-12-08T22:30:11.879Z,3.17
2022-12-08T22:32:42.442Z,3.19
2022-12-08T22:35:12.054Z,3.19
2022-12-08T22:37:41.407Z,3.20
2022-12-08T22:40:14.527Z,3.21
2022-12-08T22:42:43.471Z,3.21
2022-12-08T22:45:12.700Z,3.21
2022-12-08T22:47:41.856Z,3.22
2022-12-08T22:50:11.575Z,3.24
2022-12-08T22:52:40.922Z,3.26
2022-12-08T22:55:09.970Z,3.28
2022-12-08T22:57:39.048Z,3.28
2022-12-08T23:00:11.979Z,3.26
2022-12-08T23:02:42.021Z,3.27
2022-12-08T23:05:11.701Z,3.28
2022-12-08T23:07:41.977Z,3.27
2022-12-08T23:10:11.917Z,3.29
2022-12-08T23:12:41.756Z,3.31
2022-12-08T23:15:15.154Z,3.34
2022-12-08T23:17:44.159Z,3.37
2022-12-08T23:20:13.422Z,3.40
2022-12-08T23:22:42.156Z,3.43
2022-12-08T23:25:11.280Z,3.44
2022-12-08T23:27:40.416Z,3.45
2022-12-08T23:30:12.253Z,3.43
2022-12-08T23:32:41.258Z,3.43
2022-12-08T23:35:11.011Z,3.44
2022-12-08T23:37:39.809Z,3.45
2022-12-08T23:40:09.754Z,3.48
2022-12-08T23:42:39.366Z,3.50
2022-12-08T23:45:09.585Z,3.52
2022-12-08T23:47:38.550Z,3.53
2022-12-08T23:50:08.728Z,3.53
2022-12-08T23:52:39.792Z,3.52
2022-12-08T23:55:09.569Z,3.47
2022-12-08T23:57:38.827Z,3.41
